Current Weather

NSFA McMurdo Sound

NSFA McMurdo Sound, Antarctica (NZCM)

Report from: Wednesday, September 28, 2022 8:55 AM UTC
Current time: Wednesday, September 28, 2022 10:01 AM UTC

Nearby weather
Weather history
Weather forecast

Temperature-20.9°C (-5.6°F)
Wind chill-30.1°C (-22.2°F)
Dew point-26.8°C (-16.2°F)
Winds 8 kts (4.1 m/s, 9.2 mph) East-Northeast (60°)
Visibility6.2 mi. (10 km)
Clouds Few clouds 4,200 ft. (1,280 m)
Ceiling: Overcast 7,000 ft. (2,134 m)
Altimeter29.18 in.Hg (988 mB)
Precip. events Snow began 8:29 AM
Snow ended 8:38 AM
Relative humidity59 %
Density altitude-3,709 ft. (-1,130 m)
Sea-level pressure108.9 kPa (1089 mB, 32.15 in.Hg)
Remarks Fully automated report
System requires maintenance
Automated weather observing station with precipitation discriminator
Pressure rising, then falling
Flight conditions Visual Meteorological Conditions
Raw dataNZCM 280855Z AUTO 06008KT 9999 FEW042 OVC070 M21/M27 A2918 RMK AO2 SNB0829E0838 SLP887 T12091268 50001 $
An error has occurred. This application may no longer respond until reloaded. Reload 🗙